Time;durP1;ratioP1;P1;durP2;ratioP2;P2;SDS_P1;SDS_P2;PMS_P1;PMS_P2;Temp;Humidity;BMP_temperature;BMP_pressure;BME280_temperature;BME280_humidity;BME280_pressure;Samples;Min_cycle;Max_cycle;Signal;HPM_P1;HPM_P2
2021/10/18 00:02:45;;;;;;;23.40;15.57;;;;;7.80;101634.00;;;;10330253;28;20207;-83
2021/10/18 00:07:48;;;;;;;23.43;15.40;;;;;7.80;101629.00;;;;10329462;28;20192;-82
2021/10/18 00:12:50;;;;;;;22.70;14.80;;;;;7.80;101627.00;;;;10274094;28;20212;-82
2021/10/18 00:17:52;;;;;;;21.30;14.67;;;;;7.70;101623.00;;;;10288401;28;20663;-82
2021/10/18 00:22:54;;;;;;;24.03;15.80;;;;;7.70;101631.00;;;;10306243;28;20292;-82
2021/10/18 00:27:56;;;;;;;22.53;15.93;;;;;7.60;101637.00;;;;10304451;28;20216;-82
2021/10/18 00:32:57;;;;;;;24.40;15.70;;;;;7.60;101637.00;;;;10287945;28;20243;-81
2021/10/18 00:38:01;;;;;;;21.20;15.80;;;;;7.50;101642.00;;;;10304024;28;20201;-82
2021/10/18 00:43:03;;;;;;;23.60;15.77;;;;;7.50;101640.00;;;;10303977;28;20259;-82
2021/10/18 00:48:05;;;;;;;26.10;16.90;;;;;7.50;101641.00;;;;10263721;28;20197;-82
2021/10/18 00:53:07;;;;;;;21.73;15.80;;;;;7.40;101646.00;;;;10271219;28;20605;-82
2021/10/18 00:58:09;;;;;;;25.10;16.60;;;;;7.30;101637.00;;;;10282903;28;20267;-82
2021/10/18 01:03:12;;;;;;;19.77;14.90;;;;;7.30;101636.00;;;;10302460;28;20212;-78
2021/10/18 01:08:14;;;;;;;25.00;15.60;;;;;7.20;101629.00;;;;10285795;28;20203;-79
2021/10/18 01:13:16;;;;;;;25.43;16.43;;;;;7.20;101623.00;;;;10276826;28;20189;-78
2021/10/18 01:18:18;;;;;;;23.23;15.77;;;;;7.20;101625.00;;;;10275393;28;20207;-79
2021/10/18 01:23:20;;;;;;;26.13;15.43;;;;;7.20;101622.00;;;;10276864;28;20205;-78
2021/10/18 01:28:23;;;;;;;23.60;17.23;;;;;7.10;101618.00;;;;10273352;28;20204;-78
2021/10/18 01:33:25;;;;;;;25.80;16.07;;;;;7.10;101635.00;;;;10283934;28;20192;-78
2021/10/18 01:38:27;;;;;;;26.47;16.93;;;;;7.00;101636.00;;;;10259905;28;20203;-78
2021/10/18 01:43:29;;;;;;;32.67;18.23;;;;;7.00;101627.00;;;;10264423;28;20212;-79
2021/10/18 01:48:31;;;;;;;20.60;14.50;;;;;6.90;101627.00;;;;10283500;28;20188;-79
2021/10/18 01:53:33;;;;;;;20.33;13.90;;;;;6.70;101623.00;;;;10299474;28;20267;-78
2021/10/18 01:58:35;;;;;;;21.97;14.33;;;;;6.50;101609.00;;;;10282795;28;21046;-78
2021/10/18 02:03:37;;;;;;;20.87;14.30;;;;;6.40;101601.00;;;;10298628;28;20258;-79
2021/10/18 02:08:39;;;;;;;25.33;15.80;;;;;6.20;101588.00;;;;10328217;28;20203;-79
2021/10/18 02:13:41;;;;;;;20.83;13.77;;;;;6.00;101573.00;;;;10292109;28;20188;-79
2021/10/18 02:18:42;;;;;;;22.00;14.10;;;;;5.90;101571.00;;;;10275196;28;20200;-79
2021/10/18 02:23:44;;;;;;;20.60;14.70;;;;;5.80;101574.00;;;;10299534;28;20282;-79
2021/10/18 02:28:46;;;;;;;22.63;14.73;;;;;5.80;101580.00;;;;10299108;28;20192;-79
2021/10/18 02:33:49;;;;;;;21.60;15.10;;;;;5.70;101582.00;;;;10282942;28;20647;-78
2021/10/18 02:38:50;;;;;;;21.37;14.90;;;;;5.70;101591.00;;;;10258622;28;20680;-79
2021/10/18 02:43:52;;;;;;;20.93;14.63;;;;;5.60;101579.00;;;;10290514;28;20221;-79
2021/10/18 02:48:54;;;;;;;20.97;14.60;;;;;5.50;101579.00;;;;10275224;28;20201;-78
2021/10/18 02:53:56;;;;;;;23.50;15.87;;;;;5.40;101591.00;;;;10252235;28;20605;-79
2021/10/18 02:58:58;;;;;;;23.13;15.30;;;;;5.40;101595.00;;;;10275210;28;20208;-78
2021/10/18 03:04:00;;;;;;;22.07;14.50;;;;;5.30;101587.00;;;;10314007;28;20235;-78
2021/10/18 03:09:02;;;;;;;27.60;16.10;;;;;5.20;101597.00;;;;10299405;28;20330;-79
2021/10/18 03:14:04;;;;;;;25.00;16.20;;;;;5.20;101584.00;;;;10298279;28;20262;-79
2021/10/18 03:19:06;;;;;;;22.80;16.53;;;;;5.20;101581.00;;;;10287519;28;20251;-79
2021/10/18 03:24:08;;;;;;;22.33;16.10;;;;;5.20;101575.00;;;;10305332;28;20255;-78
2021/10/18 03:29:10;;;;;;;29.50;17.20;;;;;5.20;101573.00;;;;10290239;28;20204;-78
2021/10/18 03:34:12;;;;;;;34.37;18.77;;;;;5.20;101570.00;;;;10305476;28;20223;-78
2021/10/18 03:39:14;;;;;;;34.10;20.77;;;;;5.20;101575.00;;;;10265427;28;20275;-78
2021/10/18 03:44:16;;;;;;;30.73;18.40;;;;;5.20;101577.00;;;;10271925;28;20205;-79
2021/10/18 03:49:18;;;;;;;28.17;18.37;;;;;5.20;101580.00;;;;10304540;28;20663;-78
2021/10/18 03:54:19;;;;;;;33.93;20.37;;;;;5.20;101583.00;;;;10296288;28;20236;-78
2021/10/18 03:59:21;;;;;;;35.03;19.50;;;;;5.20;101578.00;;;;10276174;28;20259;-78
2021/10/18 04:04:23;;;;;;;34.17;20.57;;;;;5.20;101578.00;;;;10305561;28;20236;-79
2021/10/18 04:09:25;;;;;;;33.97;19.83;;;;;5.10;101582.00;;;;10291253;28;20192;-79
2021/10/18 04:14:27;;;;;;;35.20;19.97;;;;;5.10;101575.00;;;;10304274;28;20556;-79
2021/10/18 04:19:29;;;;;;;34.03;19.83;;;;;5.10;101582.00;;;;10303270;28;20714;-78
2021/10/18 04:24:31;;;;;;;34.30;20.57;;;;;5.10;101574.00;;;;10303431;28;20208;-78
2021/10/18 04:29:33;;;;;;;35.43;21.37;;;;;5.10;101583.00;;;;10302280;28;20200;-78
2021/10/18 04:34:35;;;;;;;36.37;21.07;;;;;5.10;101586.00;;;;10302336;28;20876;-78
2021/10/18 04:39:37;;;;;;;35.40;21.63;;;;;5.10;101589.00;;;;10286077;28;20608;-79
2021/10/18 04:44:39;;;;;;;37.93;21.57;;;;;5.20;101578.00;;;;10286477;28;20228;-78
2021/10/18 04:49:40;;;;;;;41.50;21.83;;;;;5.20;101587.00;;;;10286200;28;20197;-79
2021/10/18 04:54:42;;;;;;;38.80;23.27;;;;;5.20;101584.00;;;;10285933;28;20215;-78
2021/10/18 04:59:44;;;;;;;48.90;25.80;;;;;5.30;101592.00;;;;10301434;28;20223;-78
2021/10/18 05:04:46;;;;;;;54.30;27.97;;;;;5.50;101591.00;;;;10278260;28;20204;-79
2021/10/18 05:09:48;;;;;;;58.20;27.93;;;;;5.70;101596.00;;;;10285188;28;20266;-78
2021/10/18 05:14:50;;;;;;;58.73;29.20;;;;;5.80;101606.00;;;;10285182;28;20243;-78
2021/10/18 05:19:52;;;;;;;55.20;29.27;;;;;6.00;101616.00;;;;10284457;28;20223;-79
2021/10/18 05:24:54;;;;;;;61.43;28.67;;;;;6.20;101618.00;;;;10299863;28;20280;-79
2021/10/18 05:29:56;;;;;;;59.67;29.93;;;;;6.30;101629.00;;;;10276557;28;20212;-79
2021/10/18 05:34:58;;;;;;;55.03;29.03;;;;;6.40;101618.00;;;;10277642;28;20256;-79
2021/10/18 05:40:00;;;;;;;57.97;28.03;;;;;6.50;101621.00;;;;10300376;28;20184;-79
2021/10/18 05:45:03;;;;;;;53.27;28.20;;;;;6.50;101639.00;;;;10284463;28;20687;-79
2021/10/18 05:50:06;;;;;;;48.77;27.00;;;;;6.50;101633.00;;;;10299884;28;20196;-79
2021/10/18 05:55:08;;;;;;;51.10;25.70;;;;;6.50;101660.00;;;;10280614;28;20751;-79
2021/10/18 06:00:11;;;;;;;47.27;25.13;;;;;6.50;101655.00;;;;10283989;28;20274;-79
2021/10/18 06:05:13;;;;;;;45.63;25.67;;;;;6.60;101663.00;;;;10286034;28;20690;-79
2021/10/18 06:10:16;;;;;;;44.60;24.07;;;;;6.60;101664.00;;;;10339832;28;20221;-79
2021/10/18 06:15:20;;;;;;;48.63;26.37;;;;;6.70;101679.00;;;;10332626;28;20266;-79
2021/10/18 06:20:23;;;;;;;46.30;25.27;;;;;6.80;101673.00;;;;10300143;28;20556;-79
2021/10/18 06:25:25;;;;;;;46.07;24.20;;;;;6.90;101682.00;;;;10299362;28;20212;-79
2021/10/18 06:30:27;;;;;;;41.17;23.37;;;;;7.00;101683.00;;;;10279349;28;20719;-79
2021/10/18 06:35:30;;;;;;;48.07;24.43;;;;;7.10;101690.00;;;;10280130;28;20216;-79
2021/10/18 06:40:32;;;;;;;36.97;21.40;;;;;7.20;101708.00;;;;10299309;28;20730;-79
2021/10/18 06:45:35;;;;;;;43.90;23.47;;;;;7.40;101715.00;;;;10300256;28;20204;-79
2021/10/18 06:50:41;;;;;;;37.80;21.93;;;;;7.50;101705.00;;;;10298522;28;20196;-79
2021/10/18 06:55:44;;;;;;;41.30;23.03;;;;;7.60;101714.00;;;;10289810;28;20258;-79
2021/10/18 07:00:45;;;;;;;38.40;22.00;;;;;7.70;101738.00;;;;10305984;28;20263;-79
2021/10/18 07:05:48;;;;;;;37.00;21.90;;;;;7.90;101731.00;;;;10289173;28;20680;-79
2021/10/18 07:10:50;;;;;;;36.00;19.67;;;;;8.00;101737.00;;;;10282916;28;20208;-79
2021/10/18 07:15:52;;;;;;;34.60;19.87;;;;;8.20;101740.00;;;;10317419;28;20593;-79
2021/10/18 07:20:54;;;;;;;31.70;17.90;;;;;8.40;101754.00;;;;10304457;28;20196;-79
2021/10/18 07:26:02;;;;;;;31.33;18.47;;;;;8.70;101762.00;;;;10301640;28;20207;-79
2021/10/18 07:31:04;;;;;;;30.17;18.63;;;;;8.90;101769.00;;;;10249337;28;20300;-79
2021/10/18 07:36:08;;;;;;;27.47;16.70;;;;;9.10;101771.00;;;;10287589;28;20283;-78
2021/10/18 07:41:10;;;;;;;27.97;17.20;;;;;9.40;101785.00;;;;10277359;28;20192;-78
2021/10/18 07:46:12;;;;;;;27.87;16.23;;;;;9.70;101780.00;;;;10302646;28;20208;-79
2021/10/18 07:51:14;;;;;;;22.97;15.10;;;;;10.00;101783.00;;;;10292259;28;20279;-78
2021/10/18 07:56:16;;;;;;;25.00;14.20;;;;;10.20;101762.00;;;;10304570;28;20235;-79
2021/10/18 08:01:18;;;;;;;22.43;13.67;;;;;10.50;101755.00;;;;10310917;28;20208;-79
2021/10/18 08:06:20;;;;;;;23.97;14.07;;;;;10.80;101752.00;;;;10288490;28;20220;-78
2021/10/18 08:11:22;;;;;;;21.07;11.90;;;;;11.10;101764.00;;;;10276864;28;20593;-79
2021/10/18 08:16:24;;;;;;;19.37;12.30;;;;;11.20;101769.00;;;;10279998;28;20653;-78
2021/10/18 08:21:26;;;;;;;17.13;11.47;;;;;11.40;101773.00;;;;10307963;28;20246;-78
2021/10/18 08:26:28;;;;;;;33.03;14.00;;;;;11.50;101761.00;;;;10319564;28;20619;-78
2021/10/18 08:31:30;;;;;;;26.37;12.43;;;;;11.50;101769.00;;;;10265630;28;20204;-79
2021/10/18 08:36:36;;;;;;;15.70;10.07;;;;;11.50;101760.00;;;;10287148;28;20275;-79
2021/10/18 08:41:40;;;;;;;18.37;9.20;;;;;11.50;101765.00;;;;10280702;28;20274;-79
2021/10/18 08:46:46;;;;;;;14.67;10.13;;;;;11.80;101741.00;;;;10278613;28;20275;-79
2021/10/18 08:51:49;;;;;;;14.33;9.37;;;;;12.50;101741.00;;;;10285307;28;20196;-79
2021/10/18 08:56:51;;;;;;;15.20;9.40;;;;;13.00;101753.00;;;;10317835;28;20267;-79
2021/10/18 09:01:58;;;;;;;13.67;9.30;;;;;13.30;101749.00;;;;10246163;28;20259;-78
2021/10/18 09:07:02;;;;;;;13.53;9.13;;;;;13.60;101738.00;;;;10281143;28;20215;-78
2021/10/18 09:12:06;;;;;;;10.20;7.83;;;;;14.30;101740.00;;;;10310349;28;20239;-79
2021/10/18 09:17:08;;;;;;;12.40;8.00;;;;;14.50;101729.00;;;;10301379;28;20201;-78
2021/10/18 09:22:10;;;;;;;14.10;8.47;;;;;14.50;101720.00;;;;10285127;28;20196;-78
2021/10/18 09:27:17;;;;;;;11.30;8.63;;;;;14.60;101712.00;;;;10285262;28;20243;-79
2021/10/18 09:32:31;;;;;;;10.47;7.57;;;;;14.90;101710.00;;;;10299968;28;20283;-78
2021/10/18 09:37:41;;;;;;;11.20;7.83;;;;;15.20;101707.00;;;;10285293;28;20288;-78
2021/10/18 09:43:01;;;;;;;10.20;7.30;;;;;15.40;101704.00;;;;10285618;28;20216;-78
2021/10/18 10:53:15;;;;;;;10.35;4.68;;;;;18.50;101637.00;;;;10329321;28;20198;-79
2021/10/18 10:58:53;;;;;;;8.07;5.22;;;;;18.50;101629.00;;;;10360268;28;20223;-78
2021/10/18 11:03:55;;;;;;;6.93;4.80;;;;;18.40;101607.00;;;;10306001;28;20287;-78
2021/10/18 11:08:57;;;;;;;7.35;4.80;;;;;18.40;101629.00;;;;10322465;28;20204;-78
2021/10/18 11:14:00;;;;;;;6.22;4.75;;;;;18.30;101645.00;;;;10290853;28;20202;-79
2021/10/18 11:19:02;;;;;;;5.32;4.50;;;;;18.30;101648.00;;;;10306430;28;20287;-79
2021/10/18 11:24:10;;;;;;;5.72;4.72;;;;;18.30;101649.00;;;;10290759;28;20216;-79
2021/10/18 11:29:12;;;;;;;5.57;4.90;;;;;18.40;101655.00;;;;10308256;28;20192;-79
2021/10/18 11:34:19;;;;;;;6.43;5.03;;;;;18.50;101644.00;;;;10325254;28;20193;-78
2021/10/18 11:39:27;;;;;;;7.32;5.60;;;;;18.60;101616.00;;;;10331053;28;20203;-78
2021/10/18 11:45:07;;;;;;;8.73;5.00;;;;;18.60;101605.00;;;;10362187;28;20211;-80
2021/10/18 11:50:15;;;;;;;9.30;4.60;;;;;18.70;101581.00;;;;10262309;28;20281;-79
2021/10/18 11:55:31;;;;;;;11.95;5.57;;;;;18.60;101576.00;;;;10321813;28;20224;-79
2021/10/18 12:00:41;;;;;;;7.30;4.47;;;;;18.70;101581.00;;;;10301743;28;20203;-79
2021/10/18 12:05:46;;;;;;;7.03;4.53;;;;;18.70;101563.00;;;;10301243;28;20710;-80
2021/10/18 12:10:50;;;;;;;10.35;5.45;;;;;18.60;101571.00;;;;10307941;28;20224;-80
2021/10/18 12:15:59;;;;;;;9.10;4.82;;;;;18.50;101562.00;;;;10289995;28;20199;-79
2021/10/18 12:21:07;;;;;;;14.05;5.72;;;;;18.50;101551.00;;;;10309027;28;20203;-79
2021/10/18 12:26:15;;;;;;;8.30;5.18;;;;;18.50;101539.00;;;;10307231;28;20211;-79
2021/10/18 12:31:38;;;;;;;10.90;5.28;;;;;18.70;101520.00;;;;10260503;28;20748;-80
2021/10/18 12:36:56;;;;;;;9.57;4.82;;;;;19.20;101508.00;;;;10291828;28;20200;-79
2021/10/18 12:41:58;;;;;;;5.38;4.28;;;;;19.00;101510.00;;;;10278571;28;20255;-79
2021/10/18 12:46:59;;;;;;;8.32;4.78;;;;;18.80;101497.00;;;;10295732;28;20294;-80
2021/10/18 12:52:03;;;;;;;11.25;4.53;;;;;18.90;101499.00;;;;10283259;28;20220;-80
2021/10/18 12:57:09;;;;;;;9.88;4.45;;;;;19.10;101494.00;;;;10264995;28;20223;-79
2021/10/18 13:02:22;;;;;;;13.27;5.35;;;;;19.10;101492.00;;;;10307832;28;20223;-80
2021/10/18 13:07:25;;;;;;;12.30;4.68;;;;;19.20;101489.00;;;;10311175;28;20690;-80
2021/10/18 13:12:27;;;;;;;15.70;5.93;;;;;19.20;101482.00;;;;10275730;28;20240;-79
2021/10/18 13:17:29;;;;;;;13.65;4.70;;;;;18.80;101474.00;;;;10293711;28;20205;-78
2021/10/18 13:22:31;;;;;;;11.32;5.00;;;;;18.40;101472.00;;;;10286543;28;20204;-79
2021/10/18 13:27:36;;;;;;;5.93;4.05;;;;;18.10;101476.00;;;;10312205;28;20224;-79
2021/10/18 13:32:40;;;;;;;7.93;4.25;;;;;17.90;101479.00;;;;10296702;28;20199;-80
2021/10/18 13:37:42;;;;;;;8.05;4.68;;;;;17.90;101488.00;;;;10312448;28;20203;-79
2021/10/18 13:42:45;;;;;;;8.70;4.70;;;;;18.00;101480.00;;;;10301112;28;20227;-80
2021/10/18 13:47:48;;;;;;;5.60;4.50;;;;;18.10;101500.00;;;;10280405;28;20246;-79
2021/10/18 13:52:54;;;;;;;6.57;4.70;;;;;18.30;101512.00;;;;10290884;28;20200;-80
2021/10/18 13:57:56;;;;;;;5.20;4.63;;;;;18.40;101506.00;;;;10276561;28;20232;-80
2021/10/18 14:02:58;;;;;;;7.15;4.78;;;;;18.40;101516.00;;;;10296549;28;20218;-80
2021/10/18 14:08:01;;;;;;;6.57;5.40;;;;;18.40;101509.00;;;;10290702;28;20216;-79
2021/10/18 14:13:03;;;;;;;7.57;4.40;;;;;18.30;101503.00;;;;10269228;28;20204;-80
2021/10/18 14:18:06;;;;;;;7.15;5.03;;;;;18.30;101504.00;;;;10280279;28;20262;-79
2021/10/18 14:23:08;;;;;;;7.10;5.22;;;;;18.30;101512.00;;;;10279060;28;20258;-80
2021/10/18 14:28:10;;;;;;;6.72;4.38;;;;;18.40;101502.00;;;;10297701;28;20758;-80
2021/10/18 14:33:11;;;;;;;6.80;5.25;;;;;18.40;101498.00;;;;10294848;28;20248;-80
2021/10/18 14:38:13;;;;;;;9.07;5.30;;;;;18.20;101500.00;;;;10295152;28;20378;-80
2021/10/18 14:43:15;;;;;;;8.52;6.28;;;;;18.20;101511.00;;;;10279679;28;20259;-80
2021/10/18 14:48:17;;;;;;;8.50;5.15;;;;;18.10;101513.00;;;;10299722;28;20200;-81
2021/10/18 14:53:20;;;;;;;9.02;4.53;;;;;18.10;101516.00;;;;10287871;28;20206;-80
2021/10/18 14:58:32;;;;;;;6.00;4.43;;;;;18.10;101511.00;;;;10280589;28;20296;-80
2021/10/18 15:03:33;;;;;;;9.65;5.13;;;;;18.10;101508.00;;;;10297143;28;20217;-81
2021/10/18 15:08:35;;;;;;;8.45;4.70;;;;;18.00;101499.00;;;;10291570;28;20200;-80
2021/10/18 15:13:39;;;;;;;14.73;5.35;;;;;17.90;101492.00;;;;10284001;28;20204;-81
2021/10/18 15:18:41;;;;;;;9.90;5.07;;;;;17.60;101488.00;;;;10304159;28;20196;-80
2021/10/18 15:23:43;;;;;;;10.45;5.40;;;;;17.30;101485.00;;;;10336270;28;20672;-80
2021/10/18 15:28:45;;;;;;;9.85;4.47;;;;;17.00;101482.00;;;;10278602;28;20708;-80
2021/10/18 15:33:47;;;;;;;6.60;4.43;;;;;16.80;101474.00;;;;10297533;28;20454;-82
2021/10/18 15:38:49;;;;;;;6.63;4.63;;;;;16.60;101467.00;;;;10284472;28;20208;-80
2021/10/18 15:43:51;;;;;;;7.38;5.22;;;;;16.40;101457.00;;;;10283582;28;20265;-81
2021/10/18 15:48:54;;;;;;;10.00;5.30;;;;;16.30;101466.00;;;;10285445;28;20243;-80
2021/10/18 15:53:56;;;;;;;7.05;4.30;;;;;16.10;101462.00;;;;10307153;28;20199;-80
2021/10/18 15:58:58;;;;;;;6.57;4.65;;;;;15.90;101465.00;;;;10302475;28;20220;-80
2021/10/18 16:03:59;;;;;;;5.65;4.53;;;;;15.70;101469.00;;;;10287223;28;20584;-80
2021/10/18 16:09:02;;;;;;;7.50;3.85;;;;;15.60;101471.00;;;;10304612;28;20224;-80
2021/10/18 16:14:04;;;;;;;12.80;4.68;;;;;15.40;101463.00;;;;10302545;28;20196;-81
2021/10/18 16:19:06;;;;;;;5.23;4.27;;;;;15.30;101452.00;;;;10318251;28;20196;-79
2021/10/18 16:24:09;;;;;;;7.43;5.47;;;;;15.20;101442.00;;;;10300238;28;20208;-80
2021/10/18 16:29:11;;;;;;;7.37;5.57;;;;;15.20;101441.00;;;;10284391;28;20255;-79
2021/10/18 16:34:14;;;;;;;8.77;6.10;;;;;15.30;101430.00;;;;10300676;28;20656;-80
2021/10/18 16:39:17;;;;;;;10.03;5.87;;;;;15.20;101450.00;;;;10284584;28;20290;-80
2021/10/18 16:44:19;;;;;;;9.63;6.03;;;;;15.20;101445.00;;;;10284484;28;20212;-80
2021/10/18 16:49:21;;;;;;;9.17;5.80;;;;;15.20;101433.00;;;;10281093;28;20212;-79
2021/10/18 16:54:24;;;;;;;6.60;5.73;;;;;15.10;101448.00;;;;10316359;28;20224;-79
2021/10/18 16:59:25;;;;;;;8.40;6.20;;;;;14.90;101439.00;;;;10287267;28;20192;-79
2021/10/18 17:04:27;;;;;;;9.93;5.60;;;;;14.80;101434.00;;;;10297771;28;20228;-78
2021/10/18 17:09:29;;;;;;;10.80;5.67;;;;;14.70;101432.00;;;;10303513;28;20736;-79
2021/10/18 17:14:31;;;;;;;5.90;5.30;;;;;14.60;101433.00;;;;10306456;28;20219;-79
2021/10/18 17:19:33;;;;;;;7.97;5.70;;;;;14.50;101442.00;;;;10296867;28;20203;-79
2021/10/18 17:24:35;;;;;;;9.27;5.90;;;;;14.40;101439.00;;;;10291617;28;20216;-78
2021/10/18 17:29:38;;;;;;;10.30;6.23;;;;;14.30;101441.00;;;;10300862;28;20280;-78
2021/10/18 17:34:44;;;;;;;9.80;7.80;;;;;14.20;101447.00;;;;10284776;28;20199;-79
2021/10/18 17:39:46;;;;;;;10.87;6.87;;;;;14.10;101459.00;;;;10292653;28;20200;-79
2021/10/18 17:44:48;;;;;;;11.87;6.60;;;;;14.00;101452.00;;;;10293381;28;20262;-78
2021/10/18 17:49:50;;;;;;;11.07;7.13;;;;;13.90;101462.00;;;;10261956;28;20258;-78
2021/10/18 17:54:52;;;;;;;7.80;6.57;;;;;13.80;101450.00;;;;10295368;28;20215;-78
2021/10/18 17:59:54;;;;;;;10.00;6.07;;;;;13.70;101451.00;;;;10296781;28;20197;-78
2021/10/18 18:04:56;;;;;;;8.97;5.83;;;;;13.60;101459.00;;;;10276116;28;20219;-78
2021/10/18 18:09:59;;;;;;;8.17;6.10;;;;;13.70;101457.00;;;;10279374;28;20212;-78
2021/10/18 18:15:01;;;;;;;6.73;5.53;;;;;13.70;101462.00;;;;10291317;28;21452;-79
2021/10/18 18:20:06;;;;;;;8.90;6.57;;;;;13.70;101451.00;;;;10309927;28;20181;-79
2021/10/18 18:25:14;;;;;;;9.33;6.97;;;;;13.80;101452.00;;;;10309455;28;20258;-78
2021/10/18 18:30:18;;;;;;;10.57;6.30;;;;;13.80;101451.00;;;;10271891;28;20184;-79
2021/10/18 18:35:23;;;;;;;8.37;6.23;;;;;13.90;101458.00;;;;10291827;28;20203;-78
2021/10/18 18:40:25;;;;;;;9.40;6.37;;;;;13.90;101456.00;;;;10277112;28;20687;-78
2021/10/18 18:45:27;;;;;;;13.67;7.50;;;;;13.90;101453.00;;;;10313371;28;20227;-78
2021/10/18 18:50:29;;;;;;;9.93;6.37;;;;;13.90;101443.00;;;;10303711;28;20188;-78
2021/10/18 18:55:31;;;;;;;8.63;6.87;;;;;13.90;101437.00;;;;10294821;28;20212;-78
2021/10/18 19:00:33;;;;;;;8.97;6.17;;;;;14.00;101420.00;;;;10295414;28;20196;-78
2021/10/18 19:05:35;;;;;;;7.40;6.20;;;;;14.10;101432.00;;;;10299426;28;20239;-78
2021/10/18 19:10:37;;;;;;;11.57;5.87;;;;;14.20;101430.00;;;;10291358;28;20227;-78
2021/10/18 19:15:40;;;;;;;9.37;6.83;;;;;14.20;101433.00;;;;10315580;28;20189;-78
2021/10/18 19:20:42;;;;;;;8.80;6.73;;;;;14.20;101431.00;;;;10294278;28;20204;-79
2021/10/18 19:25:44;;;;;;;8.77;7.03;;;;;14.20;101431.00;;;;10295893;28;20640;-79
2021/10/18 19:30:46;;;;;;;8.97;6.43;;;;;14.20;101452.00;;;;10292383;28;20259;-79
2021/10/18 19:35:48;;;;;;;9.23;6.90;;;;;14.30;101448.00;;;;10291120;28;20200;-79
2021/10/18 19:40:50;;;;;;;7.73;6.30;;;;;14.30;101433.00;;;;10315216;28;20209;-78
2021/10/18 19:45:52;;;;;;;8.30;7.33;;;;;14.30;101439.00;;;;10297337;28;20215;-78
2021/10/18 19:50:54;;;;;;;9.77;7.13;;;;;14.20;101451.00;;;;10313867;28;20203;-78
2021/10/18 19:55:56;;;;;;;9.47;7.03;;;;;14.20;101436.00;;;;10310302;28;20212;-78
2021/10/18 20:00:58;;;;;;;11.57;7.57;;;;;14.20;101440.00;;;;10297826;28;20227;-78
2021/10/18 20:06:00;;;;;;;8.57;7.60;;;;;14.30;101437.00;;;;10305867;28;20212;-78
2021/10/18 20:11:03;;;;;;;8.10;7.00;;;;;14.30;101437.00;;;;10287588;28;20197;-78
2021/10/18 20:16:05;;;;;;;10.30;7.17;;;;;14.40;101445.00;;;;10295959;28;20200;-78
2021/10/18 20:21:11;;;;;;;10.37;7.17;;;;;14.50;101434.00;;;;10319123;28;20593;-78
2021/10/18 20:26:16;;;;;;;8.23;7.27;;;;;14.50;101431.00;;;;10302436;28;20231;-78
2021/10/18 20:31:20;;;;;;;8.67;7.33;;;;;14.60;101436.00;;;;10280201;28;20200;-78
2021/10/18 20:36:22;;;;;;;13.07;7.27;;;;;14.50;101431.00;;;;10285512;28;20192;-78
2021/10/18 20:41:23;;;;;;;9.50;7.40;;;;;14.50;101424.00;;;;10261776;28;20201;-78
2021/10/18 20:46:25;;;;;;;9.20;7.70;;;;;14.50;101426.00;;;;10261570;28;20212;-78
2021/10/18 20:51:27;;;;;;;10.63;7.07;;;;;14.50;101424.00;;;;10270071;28;20197;-78
2021/10/18 20:56:29;;;;;;;8.97;7.43;;;;;14.50;101424.00;;;;10301308;28;20220;-78
2021/10/18 21:01:31;;;;;;;9.60;7.17;;;;;14.50;101409.00;;;;10285713;28;20224;-78
2021/10/18 21:06:36;;;;;;;9.33;7.70;;;;;14.50;101422.00;;;;10304252;28;20273;-79
2021/10/18 21:11:38;;;;;;;9.73;7.40;;;;;14.50;101430.00;;;;10259766;28;20251;-78
2021/10/18 21:16:40;;;;;;;10.70;7.17;;;;;14.60;101435.00;;;;10289175;28;20193;-78
2021/10/18 21:21:42;;;;;;;12.57;7.47;;;;;14.60;101449.00;;;;10315886;28;20262;-78
2021/10/18 21:26:44;;;;;;;10.50;8.00;;;;;14.60;101453.00;;;;10276665;28;20209;-78
2021/10/18 21:31:46;;;;;;;9.63;8.13;;;;;14.60;101441.00;;;;10307161;28;20200;-78
2021/10/18 21:36:48;;;;;;;15.00;7.87;;;;;14.60;101436.00;;;;10291828;28;20653;-78
2021/10/18 21:42:04;;;;;;;11.77;7.60;;;;;14.60;101442.00;;;;10245906;28;20204;-78
2021/10/18 21:47:06;;;;;;;12.07;8.03;;;;;14.60;101438.00;;;;10312938;28;20757;-78
2021/10/18 21:52:08;;;;;;;10.67;7.13;;;;;14.70;101446.00;;;;10299668;28;20220;-78
2021/10/18 21:57:14;;;;;;;14.07;8.07;;;;;14.70;101429.00;;;;10261814;28;20212;-78
2021/10/18 22:02:17;;;;;;;10.20;7.67;;;;;14.70;101413.00;;;;10282859;28;20220;-78
2021/10/18 22:07:19;;;;;;;12.03;8.13;;;;;14.70;101413.00;;;;10306905;28;20239;-78
2021/10/18 22:12:21;;;;;;;11.80;8.17;;;;;14.70;101406.00;;;;10299439;28;20199;-78
2021/10/18 22:17:22;;;;;;;12.97;8.53;;;;;14.70;101414.00;;;;10266916;28;20228;-78
2021/10/18 22:22:24;;;;;;;10.83;9.23;;;;;14.60;101394.00;;;;10278812;28;20204;-78
2021/10/18 22:27:26;;;;;;;13.60;9.40;;;;;14.60;101388.00;;;;10290091;28;20258;-78
2021/10/18 22:32:28;;;;;;;11.93;8.97;;;;;14.60;101374.00;;;;10307794;28;20196;-78
2021/10/18 22:37:31;;;;;;;13.07;8.70;;;;;14.60;101383.00;;;;10299930;28;20220;-78
2021/10/18 22:42:34;;;;;;;13.00;8.97;;;;;14.60;101390.00;;;;10283980;28;20200;-78
2021/10/18 22:47:36;;;;;;;11.63;9.40;;;;;14.60;101367.00;;;;10308716;28;20694;-78
2021/10/18 22:52:37;;;;;;;12.70;9.70;;;;;14.60;101372.00;;;;10291526;28;20192;-78
2021/10/18 22:57:39;;;;;;;11.00;9.00;;;;;14.60;101383.00;;;;10307225;28;20212;-78
2021/10/18 23:02:41;;;;;;;12.97;9.60;;;;;14.60;101388.00;;;;10290778;28;20192;-78
2021/10/18 23:07:43;;;;;;;11.23;9.80;;;;;14.60;101384.00;;;;10310057;28;20646;-79
2021/10/18 23:12:45;;;;;;;13.57;8.93;;;;;14.60;101371.00;;;;10306797;28;20197;-79
2021/10/18 23:17:47;;;;;;;12.37;9.90;;;;;14.60;101350.00;;;;10322701;28;20180;-80
2021/10/18 23:22:49;;;;;;;12.10;10.03;;;;;14.60;101348.00;;;;10290609;28;20204;-79
2021/10/18 23:27:51;;;;;;;13.20;10.03;;;;;14.60;101338.00;;;;10289238;28;20920;-79
2021/10/18 23:32:53;;;;;;;14.93;11.57;;;;;14.60;101326.00;;;;10280229;28;20200;-79
2021/10/18 23:37:55;;;;;;;12.37;10.77;;;;;14.60;101316.00;;;;10271947;28;20239;-78
2021/10/18 23:42:57;;;;;;;16.97;11.43;;;;;14.60;101316.00;;;;10288857;28;20678;-79
2021/10/18 23:47:59;;;;;;;12.77;10.97;;;;;14.70;101321.00;;;;10289117;28;20200;-78
2021/10/18 23:53:02;;;;;;;13.23;10.87;;;;;14.70;101330.00;;;;10279083;28;20631;-79
2021/10/18 23:58:04;;;;;;;12.10;10.50;;;;;14.70;101351.00;;;;10288249;28;20702;-78
